Time;durP1;ratioP1;P1;durP2;ratioP2;P2;SDS_P1;SDS_P2;PMS_P1;PMS_P2;Temp;Humidity;BMP_temperature;BMP_pressure;BME280_temperature;BME280_humidity;BME280_pressure;Samples;Min_cycle;Max_cycle;Signal;HPM_P1;HPM_P2
2021/08/03 00:00:35;;;;;;;2.20;1.20;;;14.40;99.90;;;;;;5071114;28;20058;-84
2021/08/03 00:03:06;;;;;;;2.30;1.15;;;14.40;99.90;;;;;;5053589;28;20040;-83
2021/08/03 00:05:38;;;;;;;4.00;1.10;;;14.40;99.90;;;;;;5089457;28;20044;-84
2021/08/03 00:08:09;;;;;;;4.15;1.42;;;14.30;99.90;;;;;;5088523;28;20044;-84
2021/08/03 00:10:36;;;;;;;4.65;1.30;;;14.40;99.90;;;;;;5089349;28;20399;-84
2021/08/03 00:13:03;;;;;;;4.95;1.35;;;14.40;99.90;;;;;;5054162;28;20071;-84
2021/08/03 00:15:29;;;;;;;4.35;1.65;;;14.30;99.90;;;;;;5088554;28;20048;-84
2021/08/03 00:17:56;;;;;;;4.55;1.13;;;14.30;99.90;;;;;;5088110;28;20055;-83
2021/08/03 00:20:24;;;;;;;5.90;1.48;;;14.30;99.90;;;;;;5088224;28;20554;-83
2021/08/03 00:22:55;;;;;;;4.03;1.58;;;14.30;99.90;;;;;;5088048;28;20054;-85
2021/08/03 00:25:25;;;;;;;4.60;1.55;;;14.20;99.90;;;;;;5071759;28;20039;-84
2021/08/03 00:27:51;;;;;;;2.43;1.33;;;14.20;99.90;;;;;;5070604;28;20040;-84
2021/08/03 00:30:17;;;;;;;5.28;1.63;;;14.20;99.90;;;;;;5071449;28;20044;-84
2021/08/03 00:32:43;;;;;;;7.18;1.38;;;14.20;99.90;;;;;;5071147;28;20040;-85
2021/08/03 00:35:09;;;;;;;9.55;2.80;;;14.10;99.90;;;;;;5070356;28;20050;-84
2021/08/03 00:37:36;;;;;;;5.55;1.38;;;14.10;99.90;;;;;;5071449;28;20140;-84
2021/08/03 00:40:04;;;;;;;7.95;1.80;;;14.00;99.90;;;;;;5088257;28;20569;-86
2021/08/03 00:42:30;;;;;;;4.05;1.52;;;14.00;99.90;;;;;;5089317;28;20071;-84
2021/08/03 00:44:58;;;;;;;4.22;1.58;;;13.90;99.90;;;;;;5053650;28;20075;-84
2021/08/03 00:47:24;;;;;;;1.90;1.60;;;13.90;99.90;;;;;;5089017;28;20127;-84
2021/08/03 00:49:50;;;;;;;3.72;1.63;;;13.80;99.90;;;;;;5088407;28;20134;-86
2021/08/03 00:52:17;;;;;;;4.00;1.73;;;13.70;99.90;;;;;;5088965;28;20119;-84
2021/08/03 00:54:43;;;;;;;5.70;2.38;;;13.60;99.90;;;;;;5071258;28;20059;-83
2021/08/03 00:57:10;;;;;;;4.65;2.15;;;13.50;99.90;;;;;;5069928;28;20040;-84
2021/08/03 00:59:36;;;;;;;3.58;1.75;;;13.40;99.90;;;;;;5062519;28;20502;-84
2021/08/03 01:02:04;;;;;;;6.43;1.98;;;13.30;99.90;;;;;;5091029;28;20048;-85
2021/08/03 01:04:30;;;;;;;7.22;2.25;;;13.30;99.90;;;;;;5058427;28;20051;-85
2021/08/03 01:07:20;;;;;;;10.57;1.70;;;13.10;99.90;;;;;;5073891;28;20037;-85
2021/08/03 01:10:13;;;;;;;6.35;2.13;;;13.10;99.90;;;;;;5068675;28;20068;-84
2021/08/03 01:12:57;;;;;;;7.55;1.70;;;13.00;99.90;;;;;;5092351;28;20063;-83
2021/08/03 01:15:44;;;;;;;1.77;1.52;;;12.90;99.90;;;;;;5075060;28;20534;-83
2021/08/03 01:18:51;;;;;;;12.68;1.90;;;12.80;99.90;;;;;;5069045;28;20040;-84
2021/08/03 01:21:35;;;;;;;6.78;1.60;;;12.80;99.90;;;;;;5091835;28;20043;-84
2021/08/03 01:24:12;;;;;;;3.80;1.73;;;12.70;99.90;;;;;;5074045;28;20040;-83
2021/08/03 01:26:56;;;;;;;7.00;1.70;;;12.60;99.90;;;;;;5092643;28;20543;-84
2021/08/03 01:29:24;;;;;;;9.98;2.03;;;12.60;99.90;;;;;;5074189;28;20847;-84
2021/08/03 01:31:55;;;;;;;7.82;1.92;;;12.50;99.90;;;;;;5074360;28;20040;-84
2021/08/03 01:34:26;;;;;;;3.75;1.80;;;12.40;99.90;;;;;;5092029;28;20047;-84
2021/08/03 01:36:55;;;;;;;5.35;1.98;;;12.30;99.90;;;;;;5092131;28;20036;-85
2021/08/03 01:39:55;;;;;;;11.40;2.45;;;12.30;99.90;;;;;;5092346;28;20547;-82
2021/08/03 01:42:24;;;;;;;3.75;1.98;;;12.30;99.90;;;;;;5068292;28;20139;-80
2021/08/03 01:44:51;;;;;;;4.93;2.35;;;12.20;99.90;;;;;;5092186;28;20059;-82
2021/08/03 01:47:21;;;;;;;8.45;2.22;;;12.20;99.90;;;;;;5073326;28;20051;-80
2021/08/03 01:49:48;;;;;;;9.52;2.30;;;12.20;99.90;;;;;;5074082;28;20070;-81
2021/08/03 01:52:14;;;;;;;6.63;2.15;;;12.10;99.90;;;;;;5072628;28;20032;-82
2021/08/03 01:54:41;;;;;;;20.48;2.33;;;12.10;99.90;;;;;;5091917;28;20040;-80
2021/08/03 01:57:08;;;;;;;4.30;2.10;;;12.10;99.90;;;;;;5073066;28;20058;-82
2021/08/03 01:59:34;;;;;;;5.32;2.03;;;12.00;99.90;;;;;;5092219;28;20043;-82
2021/08/03 02:02:01;;;;;;;9.32;2.45;;;12.00;99.90;;;;;;5073200;28;20124;-82
2021/08/03 02:04:29;;;;;;;4.95;2.13;;;11.90;99.90;;;;;;5073791;28;20044;-82
2021/08/03 02:06:56;;;;;;;14.82;2.78;;;11.90;99.90;;;;;;5073719;28;20074;-84
2021/08/03 02:09:23;;;;;;;9.18;2.47;;;11.80;99.90;;;;;;5091632;28;20036;-83
2021/08/03 02:11:51;;;;;;;7.75;2.40;;;11.80;99.90;;;;;;5091433;28;20051;-81
2021/08/03 02:14:20;;;;;;;5.47;2.10;;;11.80;99.90;;;;;;5090768;28;20036;-83
2021/08/03 02:16:46;;;;;;;5.82;2.47;;;11.70;99.90;;;;;;5091855;28;20126;-82
2021/08/03 02:19:12;;;;;;;6.47;2.53;;;11.70;99.90;;;;;;5090802;28;20127;-82
2021/08/03 02:21:41;;;;;;;9.07;2.80;;;11.60;99.90;;;;;;5092046;28;20052;-82
2021/08/03 02:24:07;;;;;;;9.68;2.08;;;11.60;99.90;;;;;;5090729;28;20093;-82
2021/08/03 02:26:33;;;;;;;4.03;2.10;;;11.50;99.90;;;;;;5056629;28;20036;-82
2021/08/03 02:28:58;;;;;;;3.58;1.60;;;11.50;99.90;;;;;;5056772;28;20055;-84
2021/08/03 02:31:38;;;;;;;3.03;2.10;;;11.40;99.90;;;;;;5072999;28;20068;-82
2021/08/03 02:34:11;;;;;;;4.43;2.00;;;11.40;99.90;;;;;;5090761;28;20065;-81
2021/08/03 02:36:47;;;;;;;3.15;1.80;;;11.40;99.90;;;;;;5073198;28;20040;-81
2021/08/03 02:39:13;;;;;;;5.15;1.92;;;11.30;99.90;;;;;;5090329;28;20040;-81
2021/08/03 02:41:42;;;;;;;7.63;2.25;;;11.30;99.90;;;;;;5090916;28;20123;-82
2021/08/03 02:44:09;;;;;;;12.50;2.70;;;11.30;99.90;;;;;;5090087;28;20141;-81
2021/08/03 02:46:39;;;;;;;9.32;2.08;;;11.30;99.90;;;;;;5073297;28;20517;-82
2021/08/03 02:49:07;;;;;;;8.15;1.80;;;11.30;99.90;;;;;;5090195;28;20455;-81
2021/08/03 02:51:38;;;;;;;8.80;2.40;;;11.30;99.90;;;;;;5073160;28;20399;-81
2021/08/03 02:54:11;;;;;;;9.40;2.47;;;11.20;99.90;;;;;;5072212;28;20044;-82
2021/08/03 02:56:37;;;;;;;6.20;2.65;;;11.20;99.90;;;;;;5066639;28;20486;-81
2021/08/03 02:59:08;;;;;;;4.18;2.60;;;11.20;99.90;;;;;;5055949;28;20127;-85
2021/08/03 03:01:37;;;;;;;7.78;2.65;;;11.20;99.90;;;;;;5084670;28;20068;-81
2021/08/03 03:04:26;;;;;;;7.35;2.60;;;11.10;99.90;;;;;;5063203;28;20123;-85
2021/08/03 03:07:04;;;;;;;8.95;2.08;;;11.10;99.90;;;;;;5085025;28;20036;-81
2021/08/03 03:09:35;;;;;;;13.85;2.58;;;11.00;99.90;;;;;;5056644;28;20036;-83
2021/08/03 03:12:03;;;;;;;6.05;2.63;;;10.90;99.90;;;;;;5082731;28;20040;-84
2021/08/03 03:14:29;;;;;;;5.65;3.33;;;10.90;99.90;;;;;;5090694;28;20123;-82
2021/08/03 03:16:57;;;;;;;3.35;2.50;;;10.80;99.90;;;;;;5066838;28;20131;-82
2021/08/03 03:19:23;;;;;;;5.60;2.35;;;10.80;99.90;;;;;;5089409;28;20162;-81
2021/08/03 03:21:52;;;;;;;3.05;2.10;;;10.80;99.90;;;;;;5072029;28;20101;-81
2021/08/03 03:24:18;;;;;;;11.88;2.42;;;10.80;99.90;;;;;;5071154;28;20155;-80
2021/08/03 03:26:46;;;;;;;10.90;2.78;;;10.70;99.90;;;;;;5051275;28;20044;-81
2021/08/03 03:29:14;;;;;;;13.18;2.90;;;10.70;99.90;;;;;;5054862;28;20051;-80
2021/08/03 03:31:41;;;;;;;6.95;2.17;;;10.60;99.90;;;;;;5070550;28;20055;-81
2021/08/03 03:34:09;;;;;;;5.15;2.42;;;10.60;99.90;;;;;;5071507;28;20040;-84
2021/08/03 03:36:37;;;;;;;4.03;2.42;;;10.60;99.90;;;;;;5089885;28;20048;-81
2021/08/03 03:39:05;;;;;;;8.82;2.50;;;10.50;99.90;;;;;;5079531;28;20109;-81
2021/08/03 03:41:32;;;;;;;8.90;2.97;;;10.50;99.90;;;;;;5059306;28;20044;-81
2021/08/03 03:44:01;;;;;;;8.27;2.70;;;10.40;99.90;;;;;;5055562;28;20043;-80
2021/08/03 03:46:39;;;;;;;5.05;2.80;;;10.40;99.90;;;;;;5088708;28;20039;-81
2021/08/03 03:49:11;;;;;;;;;;;10.40;99.90;;;;;;5072115;28;20044;-84
2021/08/03 03:51:41;;;;;;;9.27;2.60;;;10.40;99.90;;;;;;5071445;28;20268;-80
2021/08/03 03:54:09;;;;;;;6.60;2.70;;;10.40;99.90;;;;;;5089344;28;20316;-84
2021/08/03 03:56:47;;;;;;;8.90;2.80;;;10.40;99.90;;;;;;5089325;28;20071;-81
2021/08/03 03:59:18;;;;;;;8.65;3.00;;;10.30;99.90;;;;;;5088981;28;20730;-81
2021/08/03 04:01:44;;;;;;;6.85;2.90;;;10.30;99.90;;;;;;5071744;28;20044;-81
2021/08/03 04:04:11;;;;;;;14.25;3.45;;;10.30;99.90;;;;;;5070983;28;20402;-83
2021/08/03 04:06:38;;;;;;;9.05;2.80;;;10.30;99.90;;;;;;5089393;28;20044;-81
2021/08/03 04:09:03;;;;;;;15.70;3.22;;;10.40;99.90;;;;;;5089177;28;20044;-80
2021/08/03 04:11:29;;;;;;;13.80;4.07;;;10.40;99.90;;;;;;5088998;28;20035;-81
2021/08/03 04:13:56;;;;;;;10.30;3.13;;;10.40;99.90;;;;;;5054960;28;20044;-81
2021/08/03 04:16:22;;;;;;;10.98;3.33;;;10.50;99.90;;;;;;5053305;28;20036;-82
2021/08/03 04:18:47;;;;;;;6.22;3.20;;;10.50;99.90;;;;;;5089023;28;20070;-81
2021/08/03 04:21:13;;;;;;;3.15;2.78;;;10.60;99.90;;;;;;5088535;28;20039;-82
2021/08/03 04:23:39;;;;;;;8.02;2.83;;;10.60;99.90;;;;;;5071299;28;20071;-81
2021/08/03 04:26:05;;;;;;;12.77;2.97;;;10.60;99.90;;;;;;5054343;28;20047;-81
2021/08/03 04:28:35;;;;;;;5.50;3.10;;;10.60;99.90;;;;;;5088893;28;20407;-82
2021/08/03 04:31:01;;;;;;;7.57;2.90;;;10.60;99.90;;;;;;5089057;28;20046;-81
2021/08/03 04:33:27;;;;;;;7.97;2.90;;;10.60;99.90;;;;;;5070267;28;20105;-81
2021/08/03 04:35:53;;;;;;;6.25;3.28;;;10.60;99.90;;;;;;5070903;28;20119;-81
2021/08/03 04:38:19;;;;;;;6.63;2.55;;;10.60;99.90;;;;;;5053531;28;20119;-82
2021/08/03 04:40:45;;;;;;;7.00;2.58;;;10.70;99.90;;;;;;5070964;28;20048;-82
2021/08/03 04:43:11;;;;;;;12.77;2.70;;;10.70;99.90;;;;;;5070497;28;20055;-84
2021/08/03 04:45:40;;;;;;;9.80;2.97;;;10.70;99.90;;;;;;5071516;28;20056;-82
2021/08/03 04:48:05;;;;;;;15.88;4.18;;;10.70;99.90;;;;;;5071036;28;20054;-81
2021/08/03 04:50:32;;;;;;;11.10;3.65;;;10.80;99.90;;;;;;5053873;28;20588;-82
2021/08/03 04:52:57;;;;;;;10.77;3.20;;;10.80;99.90;;;;;;5071341;28;20044;-81
2021/08/03 04:55:23;;;;;;;17.83;3.17;;;10.80;99.90;;;;;;5070353;28;20040;-82
2021/08/03 04:57:49;;;;;;;6.53;3.15;;;10.90;99.90;;;;;;5087306;28;20067;-83
2021/08/03 05:00:16;;;;;;;6.70;2.60;;;10.90;99.90;;;;;;5070328;28;20494;-83
2021/08/03 05:02:42;;;;;;;4.80;2.88;;;11.00;99.90;;;;;;5071110;28;20047;-82
2021/08/03 05:05:09;;;;;;;8.23;4.30;;;11.00;99.90;;;;;;5088993;28;20074;-82
2021/08/03 05:07:35;;;;;;;6.47;3.25;;;11.10;99.90;;;;;;5088017;28;20044;-82
2021/08/03 05:10:07;;;;;;;4.45;3.05;;;11.10;99.90;;;;;;5071190;28;20132;-81
2021/08/03 05:12:33;;;;;;;5.30;3.33;;;11.20;99.90;;;;;;5070468;28;20048;-82
2021/08/03 05:15:02;;;;;;;9.38;3.85;;;11.30;99.90;;;;;;5088843;28;20109;-82
2021/08/03 05:17:31;;;;;;;7.05;4.25;;;11.40;99.90;;;;;;5069770;28;20051;-81
2021/08/03 05:19:57;;;;;;;6.97;3.65;;;11.60;99.90;;;;;;5070927;28;20048;-81
2021/08/03 05:22:24;;;;;;;7.50;3.97;;;11.80;99.90;;;;;;5069864;28;20484;-82
2021/08/03 05:24:50;;;;;;;6.80;3.88;;;11.90;99.90;;;;;;5037918;28;20048;-81
2021/08/03 05:27:16;;;;;;;22.15;4.30;;;12.00;99.90;;;;;;5070428;28;20050;-85
2021/08/03 05:29:42;;;;;;;9.73;4.72;;;12.20;99.90;;;;;;5070221;28;20044;-81
2021/08/03 05:32:07;;;;;;;6.47;3.75;;;12.30;99.90;;;;;;5070742;28;20039;-81
2021/08/03 05:34:33;;;;;;;10.02;3.67;;;12.30;99.90;;;;;;5053239;28;20051;-82
2021/08/03 05:37:02;;;;;;;9.95;3.78;;;12.50;99.90;;;;;;5088918;28;20048;-83
2021/08/03 05:39:28;;;;;;;7.88;3.22;;;12.50;99.90;;;;;;5087906;28;20040;-82
2021/08/03 05:41:54;;;;;;;9.50;4.22;;;12.60;99.90;;;;;;5069901;28;20563;-82
2021/08/03 05:44:19;;;;;;;8.68;3.67;;;12.80;99.90;;;;;;5052402;28;20411;-85
2021/08/03 05:46:45;;;;;;;8.10;2.55;;;12.80;99.90;;;;;;5090509;28;20066;-82
2021/08/03 05:49:11;;;;;;;6.38;2.45;;;13.00;99.90;;;;;;5057912;28;20040;-82
2021/08/03 05:51:37;;;;;;;2.70;2.10;;;13.10;99.90;;;;;;5056404;28;20036;-82
2021/08/03 05:54:05;;;;;;;5.55;2.47;;;13.20;99.90;;;;;;5074472;28;20094;-82
2021/08/03 05:56:31;;;;;;;8.77;2.28;;;13.30;99.90;;;;;;5072862;28;20036;-84
2021/08/03 05:58:57;;;;;;;8.35;3.03;;;13.40;99.90;;;;;;5073782;28;20032;-83
2021/08/03 06:01:23;;;;;;;9.13;3.45;;;13.40;99.90;;;;;;5056578;28;20391;-84
2021/08/03 06:03:48;;;;;;;7.72;2.30;;;13.50;99.90;;;;;;5091910;28;20070;-83
2021/08/03 06:06:15;;;;;;;11.88;1.85;;;13.60;99.90;;;;;;5073914;28;20051;-84
2021/08/03 06:08:43;;;;;;;17.73;2.67;;;13.60;99.90;;;;;;5090072;28;20036;-83
2021/08/03 06:11:15;;;;;;;5.50;1.88;;;13.70;99.90;;;;;;5091936;28;20044;-83
2021/08/03 06:13:47;;;;;;;5.30;1.95;;;13.80;99.90;;;;;;5091020;28;20032;-84
2021/08/03 06:16:22;;;;;;;2.63;1.27;;;13.80;99.90;;;;;;5073788;28;20036;-83
2021/08/03 06:18:49;;;;;;;5.68;1.50;;;13.90;99.90;;;;;;5073420;28;20040;-83
2021/08/03 06:21:16;;;;;;;3.25;1.10;;;14.00;99.90;;;;;;5073534;28;20059;-85
2021/08/03 06:23:44;;;;;;;4.80;1.33;;;14.10;99.90;;;;;;5072558;28;20040;-83
2021/08/03 06:26:11;;;;;;;11.88;1.40;;;14.20;99.90;;;;;;5073188;28;20040;-83
2021/08/03 06:28:38;;;;;;;7.55;1.30;;;14.30;99.90;;;;;;5061714;28;20040;-83
2021/08/03 06:31:04;;;;;;;6.15;1.50;;;14.30;99.90;;;;;;5073656;28;20131;-83
2021/08/03 06:33:30;;;;;;;10.23;1.80;;;14.30;99.90;;;;;;5072410;28;20040;-83
2021/08/03 06:35:56;;;;;;;6.13;1.38;;;14.30;99.90;;;;;;5091296;28;20118;-82
2021/08/03 06:38:22;;;;;;;10.40;1.20;;;14.40;99.90;;;;;;5055393;28;20111;-85
2021/08/03 06:41:03;;;;;;;6.03;1.10;;;14.40;99.90;;;;;;5091397;28;20048;-83
2021/08/03 06:43:32;;;;;;;7.68;1.35;;;14.40;99.90;;;;;;5072115;28;20038;-82
2021/08/03 06:46:08;;;;;;;9.93;1.50;;;14.50;99.90;;;;;;5091453;28;20491;-82
2021/08/03 06:48:46;;;;;;;4.72;1.48;;;14.50;99.90;;;;;;5085843;28;20037;-83
2021/08/03 06:51:17;;;;;;;9.45;1.65;;;14.70;99.90;;;;;;5066035;28;20058;-83
2021/08/03 06:53:48;;;;;;;3.72;1.08;;;14.70;99.90;;;;;;5089849;28;20622;-83
2021/08/03 06:56:24;;;;;;;2.30;0.98;;;14.80;99.90;;;;;;5060430;28;20036;-83
2021/08/03 06:59:03;;;;;;;2.70;0.77;;;14.80;99.90;;;;;;5090112;28;20089;-83
2021/08/03 07:01:46;;;;;;;7.00;0.68;;;14.90;99.90;;;;;;5080408;28;20032;-83
2021/08/03 07:04:17;;;;;;;3.33;0.60;;;15.00;99.90;;;;;;5055274;28;20387;-84
2021/08/03 07:06:46;;;;;;;2.45;0.50;;;15.10;99.90;;;;;;5082050;28;20135;-83
2021/08/03 07:09:14;;;;;;;2.90;0.50;;;15.20;99.90;;;;;;5083699;28;20119;-83
2021/08/03 07:11:40;;;;;;;4.05;0.60;;;15.20;99.90;;;;;;5070243;28;20032;-83
2021/08/03 07:14:07;;;;;;;1.52;0.50;;;15.30;99.90;;;;;;5048527;28;20044;-84
2021/08/03 07:16:33;;;;;;;0.90;0.40;;;15.40;99.90;;;;;;5064857;28;20035;-83
2021/08/03 07:19:00;;;;;;;1.30;0.68;;;15.40;99.90;;;;;;5069717;28;20411;-87
2021/08/03 07:21:26;;;;;;;3.83;0.70;;;15.50;99.90;;;;;;5065048;28;20063;-86
2021/08/03 07:23:57;;;;;;;5.22;0.73;;;15.50;99.90;;;;;;5061652;28;20119;-86
2021/08/03 07:26:24;;;;;;;2.58;0.40;;;15.50;99.90;;;;;;5083334;28;20087;-86
2021/08/03 07:28:51;;;;;;;1.10;0.30;;;15.60;99.90;;;;;;5068590;28;20495;-87
2021/08/03 07:31:17;;;;;;;9.05;0.63;;;15.70;99.90;;;;;;5078063;28;20044;-84
2021/08/03 07:33:43;;;;;;;0.85;0.43;;;15.70;99.90;;;;;;5080165;28;20048;-84
2021/08/03 07:36:09;;;;;;;0.98;0.52;;;15.70;99.90;;;;;;5070072;28;20170;-84
2021/08/03 07:38:35;;;;;;;2.13;0.40;;;15.80;99.90;;;;;;5051455;28;20044;-83
2021/08/03 07:41:01;;;;;;;1.23;0.50;;;15.80;99.90;;;;;;5070199;28;20049;-83
2021/08/03 07:43:27;;;;;;;0.90;0.28;;;15.90;99.90;;;;;;5064087;28;20048;-84
2021/08/03 07:45:53;;;;;;;1.95;0.80;;;15.90;99.90;;;;;;5059540;28;20055;-84
2021/08/03 07:48:19;;;;;;;3.33;0.57;;;16.00;99.90;;;;;;5086733;28;20052;-84
2021/08/03 07:50:45;;;;;;;0.77;0.45;;;16.00;99.90;;;;;;5051354;28;20505;-84
2021/08/03 07:53:10;;;;;;;1.73;0.50;;;16.10;99.90;;;;;;5086467;28;20044;-85
2021/08/03 07:55:37;;;;;;;1.88;0.75;;;16.20;99.90;;;;;;5069085;28;20038;-84
2021/08/03 07:58:03;;;;;;;1.08;0.50;;;16.30;99.90;;;;;;5054534;28;20450;-86
2021/08/03 08:00:28;;;;;;;1.63;0.52;;;16.30;99.90;;;;;;5069202;28;20453;-85
2021/08/03 08:02:56;;;;;;;4.30;0.60;;;16.30;99.90;;;;;;5068869;28;20624;-84
2021/08/03 08:05:22;;;;;;;0.50;0.38;;;16.40;99.90;;;;;;5071071;28;20093;-84
2021/08/03 08:07:47;;;;;;;4.28;1.05;;;16.40;99.90;;;;;;5087787;28;20035;-84
2021/08/03 08:10:13;;;;;;;1.85;0.50;;;16.40;99.90;;;;;;5053245;28;20086;-84
2021/08/03 08:12:39;;;;;;;1.30;0.50;;;16.40;99.90;;;;;;5053815;28;20126;-84
2021/08/03 08:15:05;;;;;;;0.70;0.30;;;16.40;99.90;;;;;;5071063;28;20068;-84
2021/08/03 08:17:31;;;;;;;0.93;0.20;;;16.40;99.90;;;;;;5070907;28;20082;-87
2021/08/03 08:19:57;;;;;;;5.05;0.60;;;16.50;99.90;;;;;;5088499;28;20076;-83
2021/08/03 08:22:22;;;;;;;3.00;0.52;;;16.60;99.90;;;;;;5071409;28;20040;-86
2021/08/03 08:24:49;;;;;;;1.08;0.30;;;16.70;99.90;;;;;;5086460;28;20050;-84
2021/08/03 08:27:14;;;;;;;1.42;0.60;;;16.80;99.90;;;;;;5070833;28;20123;-86
2021/08/03 08:29:41;;;;;;;1.38;0.80;;;16.90;99.90;;;;;;5069658;28;20149;-84
2021/08/03 08:32:07;;;;;;;2.97;0.40;;;17.00;99.90;;;;;;5070807;28;20051;-83
2021/08/03 08:34:33;;;;;;;1.52;0.60;;;17.00;99.90;;;;;;5088589;28;20040;-86
2021/08/03 08:36:59;;;;;;;1.17;0.50;;;17.00;99.90;;;;;;5070187;28;20074;-85
2021/08/03 08:39:24;;;;;;;2.25;0.50;;;17.10;99.90;;;;;;5089032;28;20369;-82
2021/08/03 08:41:50;;;;;;;1.95;0.40;;;17.20;99.90;;;;;;5088489;28;20047;-85
2021/08/03 08:44:19;;;;;;;6.00;0.70;;;17.30;99.90;;;;;;5054196;28;20052;-83
2021/08/03 08:46:46;;;;;;;2.33;0.60;;;17.40;99.90;;;;;;5070289;28;20119;-83
2021/08/03 08:49:15;;;;;;;6.68;1.10;;;17.50;99.90;;;;;;5054364;28;20290;-84
2021/08/03 08:51:42;;;;;;;1.70;0.40;;;17.60;99.90;;;;;;5088119;28;20044;-83
2021/08/03 08:54:08;;;;;;;1.13;0.60;;;17.70;99.90;;;;;;5089205;28;20055;-84
2021/08/03 08:56:34;;;;;;;1.52;0.50;;;17.70;99.90;;;;;;5089134;28;20042;-83
2021/08/03 08:59:01;;;;;;;3.50;0.52;;;17.90;99.90;;;;;;5069977;28;20040;-84
2021/08/03 09:01:27;;;;;;;1.48;0.60;;;18.00;99.90;;;;;;5070400;28;20075;-83
2021/08/03 09:03:53;;;;;;;2.67;0.80;;;18.10;99.90;;;;;;5053698;28;20428;-81
2021/08/03 09:06:21;;;;;;;4.78;0.88;;;18.10;99.90;;;;;;5053957;28;20048;-82
2021/08/03 09:08:49;;;;;;;3.47;0.50;;;18.00;99.90;;;;;;5069733;28;20036;-82
2021/08/03 09:11:20;;;;;;;2.05;0.60;;;18.10;99.90;;;;;;5070486;28;20117;-82
2021/08/03 09:13:50;;;;;;;1.90;0.73;;;18.10;99.90;;;;;;5087913;28;20052;-83
2021/08/03 09:16:17;;;;;;;3.95;0.80;;;18.10;99.90;;;;;;5070351;28;20047;-82
2021/08/03 09:18:44;;;;;;;2.42;0.40;;;18.00;99.90;;;;;;5087986;28;20048;-86
2021/08/03 09:21:20;;;;;;;2.05;0.52;;;18.00;99.90;;;;;;5071487;28;20544;-82
2021/08/03 09:23:55;;;;;;;2.35;0.60;;;18.00;99.90;;;;;;5075279;28;20036;-83
2021/08/03 09:26:49;;;;;;;3.40;0.90;;;17.90;99.90;;;;;;5092425;28;20036;-83
2021/08/03 09:29:18;;;;;;;4.63;0.80;;;17.90;99.90;;;;;;5092796;28;20044;-83
2021/08/03 09:31:57;;;;;;;0.90;0.50;;;18.00;99.90;;;;;;5073523;28;20077;-84
2021/08/03 09:34:23;;;;;;;4.00;0.77;;;18.10;99.90;;;;;;5074065;28;20487;-82
2021/08/03 09:36:56;;;;;;;0.90;0.52;;;18.10;99.90;;;;;;5073462;28;20355;-83
2021/08/03 09:39:45;;;;;;;1.83;0.70;;;18.00;99.90;;;;;;5092419;28;20044;-83
2021/08/03 09:42:24;;;;;;;1.17;0.73;;;18.10;99.90;;;;;;5090875;28;20040;-87
2021/08/03 09:45:00;;;;;;;1.55;0.70;;;18.20;99.90;;;;;;5072971;28;20083;-84
2021/08/03 09:47:28;;;;;;;2.15;0.88;;;18.30;99.90;;;;;;5064031;28;20044;-85
2021/08/03 09:49:57;;;;;;;1.33;0.60;;;18.30;99.90;;;;;;5073200;28;20472;-85
2021/08/03 09:52:25;;;;;;;1.60;0.50;;;18.30;99.90;;;;;;5074063;28;20044;-84
2021/08/03 09:55:06;;;;;;;1.83;0.80;;;18.60;99.90;;;;;;5056314;28;20441;-84
2021/08/03 09:57:33;;;;;;;3.47;0.60;;;18.80;99.90;;;;;;5092207;28;21884;-84
2021/08/03 09:59:58;;;;;;;0.88;0.60;;;19.00;99.90;;;;;;5072716;28;20489;-84
2021/08/03 10:02:26;;;;;;;1.85;0.60;;;19.10;99.90;;;;;;5057489;28;20050;-84
2021/08/03 10:04:53;;;;;;;0.98;0.50;;;19.20;99.90;;;;;;5073018;28;20115;-84
2021/08/03 10:07:20;;;;;;;1.90;0.60;;;19.10;99.90;;;;;;5073357;28;20376;-84
2021/08/03 10:09:48;;;;;;;1.73;0.30;;;19.20;99.90;;;;;;5072994;28;20484;-87
2021/08/03 10:12:15;;;;;;;0.80;0.40;;;19.10;99.90;;;;;;5090990;28;20044;-85
2021/08/03 10:14:41;;;;;;;2.22;0.68;;;19.20;99.90;;;;;;5087368;28;20036;-84
2021/08/03 10:17:13;;;;;;;1.30;0.95;;;19.40;99.90;;;;;;5072428;28;20093;-84
2021/08/03 10:19:39;;;;;;;1.10;0.70;;;19.30;99.90;;;;;;5073182;28;20186;-85
2021/08/03 10:22:31;;;;;;;1.60;0.50;;;19.20;99.90;;;;;;5090376;28;20158;-84
2021/08/03 10:25:02;;;;;;;0.63;0.50;;;19.10;99.90;;;;;;5068300;28;20036;-84
2021/08/03 10:27:43;;;;;;;0.95;0.80;;;19.00;99.90;;;;;;5090244;28;20096;-84
2021/08/03 10:30:30;;;;;;;1.00;0.75;;;18.80;99.90;;;;;;5071749;28;20238;-84
2021/08/03 10:33:10;;;;;;;1.98;0.38;;;18.90;99.90;;;;;;5058502;28;20056;-84
2021/08/03 10:35:53;;;;;;;2.95;0.60;;;18.90;99.90;;;;;;5090781;28;20056;-84
2021/08/03 10:38:28;;;;;;;1.33;0.52;;;19.10;99.90;;;;;;5072947;28;20112;-84
2021/08/03 10:41:08;;;;;;;0.88;0.63;;;19.10;99.90;;;;;;5072340;28;20046;-84
2021/08/03 10:43:33;;;;;;;2.53;0.60;;;19.10;99.90;;;;;;5090826;28;20147;-83
2021/08/03 10:46:08;;;;;;;2.47;0.63;;;18.90;99.90;;;;;;5089252;28;20139;-84
2021/08/03 10:48:37;;;;;;;1.25;0.50;;;18.90;99.90;;;;;;5075155;28;20044;-84
2021/08/03 10:51:15;;;;;;;1.17;0.60;;;19.00;99.90;;;;;;5070603;28;20468;-85
2021/08/03 10:54:00;;;;;;;1.52;0.50;;;19.00;99.90;;;;;;5090796;28;20048;-84
2021/08/03 10:56:27;;;;;;;3.03;0.70;;;19.00;99.90;;;;;;5062767;28;20059;-84
2021/08/03 10:59:32;;;;;;;0.63;0.50;;;18.90;99.90;;;;;;5085208;28;20039;-87
2021/08/03 11:01:59;;;;;;;1.75;0.65;;;18.90;99.90;;;;;;5088311;28;20113;-84
2021/08/03 11:04:40;;;;;;;1.17;0.60;;;19.10;99.90;;;;;;5090380;28;20480;-83
2021/08/03 11:07:36;;;;;;;1.25;0.45;;;19.30;99.90;;;;;;5088109;28;20036;-83
2021/08/03 11:10:14;;;;;;;3.70;0.98;;;19.40;99.90;;;;;;5067827;28;20051;-83
2021/08/03 11:12:51;;;;;;;1.55;0.80;;;19.50;99.90;;;;;;5090095;28;20082;-83
2021/08/03 11:15:22;;;;;;;1.52;0.70;;;19.50;99.90;;;;;;5070618;28;20040;-83
2021/08/03 11:17:57;;;;;;;1.58;0.50;;;19.60;99.90;;;;;;5099225;28;20101;-83
2021/08/03 11:20:39;;;;;;;1.45;0.55;;;19.60;99.90;;;;;;5089289;28;20123;-83
2021/08/03 11:23:06;;;;;;;3.28;0.63;;;19.70;99.90;;;;;;5088542;28;20040;-82
2021/08/03 11:25:33;;;;;;;1.55;0.73;;;19.80;99.90;;;;;;5055195;28;20136;-83
2021/08/03 11:28:16;;;;;;;2.88;0.80;;;20.00;99.90;;;;;;5070890;28;20474;-83
2021/08/03 11:30:44;;;;;;;3.67;0.88;;;20.10;99.90;;;;;;5071800;28;20042;-83
2021/08/03 11:33:14;;;;;;;1.65;0.60;;;20.20;99.90;;;;;;5088825;28;20043;-83
2021/08/03 11:35:41;;;;;;;4.13;0.55;;;20.30;99.90;;;;;;5090241;28;20487;-83
2021/08/03 11:38:09;;;;;;;4.35;1.13;;;20.40;99.90;;;;;;5088840;28;20207;-83
2021/08/03 11:40:36;;;;;;;1.00;0.60;;;20.30;98.40;;;;;;5072345;28;20692;-82
2021/08/03 11:43:04;;;;;;;2.70;0.70;;;20.10;99.90;;;;;;5087351;28;20048;-84
2021/08/03 11:45:30;;;;;;;5.30;0.50;;;20.10;99.90;;;;;;5089233;28;20051;-83
2021/08/03 11:47:59;;;;;;;1.20;0.55;;;20.30;99.90;;;;;;5070929;28;20472;-86
2021/08/03 11:50:31;;;;;;;1.65;0.80;;;20.30;98.80;;;;;;5088305;28;20476;-83
2021/08/03 11:53:07;;;;;;;0.47;0.40;;;20.10;98.90;;;;;;5089522;28;20040;-85
2021/08/03 11:55:34;;;;;;;0.88;0.50;;;20.10;99.30;;;;;;5089891;28;20044;-83
2021/08/03 11:58:01;;;;;;;1.05;0.45;;;20.30;99.70;;;;;;5088783;28;20081;-85
2021/08/03 12:00:27;;;;;;;0.70;0.60;;;20.40;99.10;;;;;;5071445;28;20502;-83
2021/08/03 12:02:58;;;;;;;2.38;0.98;;;20.50;99.60;;;;;;5071815;28;20040;-83
2021/08/03 12:05:26;;;;;;;0.85;0.47;;;20.40;98.70;;;;;;5071369;28;20110;-83
2021/08/03 12:07:55;;;;;;;0.98;0.60;;;20.40;99.90;;;;;;5089674;28;20044;-83
2021/08/03 12:10:23;;;;;;;1.88;0.60;;;20.40;98.10;;;;;;5070831;28;20044;-83
2021/08/03 12:12:50;;;;;;;1.00;0.70;;;20.50;99.90;;;;;;5089289;28;20115;-83
2021/08/03 12:15:17;;;;;;;3.30;0.68;;;20.50;99.90;;;;;;5054425;28;20097;-83
2021/08/03 12:17:44;;;;;;;0.50;0.50;;;20.50;98.00;;;;;;5089367;28;20040;-82
2021/08/03 12:20:25;;;;;;;1.15;0.55;;;20.40;97.80;;;;;;5088819;28;20032;-83
2021/08/03 12:22:51;;;;;;;0.50;0.50;;;20.10;99.80;;;;;;5071103;28;20040;-83
2021/08/03 12:25:20;;;;;;;2.10;0.60;;;20.00;99.50;;;;;;5088748;28;20043;-83
2021/08/03 12:27:48;;;;;;;1.88;0.70;;;19.90;99.40;;;;;;5071181;28;20036;-83
2021/08/03 12:30:36;;;;;;;0.50;0.50;;;19.90;99.90;;;;;;5088576;28;20495;-83
2021/08/03 12:33:03;;;;;;;3.58;0.70;;;20.00;99.80;;;;;;5088731;28;20043;-85
2021/08/03 12:35:29;;;;;;;7.47;0.70;;;20.10;99.00;;;;;;5054591;28;20070;-83
2021/08/03 12:38:17;;;;;;;2.88;0.70;;;20.00;98.50;;;;;;5088890;28;20488;-83
2021/08/03 12:40:43;;;;;;;2.85;0.60;;;19.70;99.20;;;;;;5071453;28;20068;-84
2021/08/03 12:43:09;;;;;;;1.00;0.50;;;19.50;99.30;;;;;;5070387;28;20098;-82
2021/08/03 12:45:37;;;;;;;1.30;1.20;;;19.50;99.90;;;;;;5089079;28;20063;-83
2021/08/03 12:48:06;;;;;;;1.38;0.50;;;19.90;98.70;;;;;;5070579;28;20550;-85
2021/08/03 12:50:46;;;;;;;1.58;0.70;;;19.70;99.00;;;;;;5089276;28;20032;-83
2021/08/03 12:53:28;;;;;;;1.15;0.63;;;19.60;99.70;;;;;;5087978;28;20040;-84
2021/08/03 12:56:05;;;;;;;1.45;0.50;;;19.50;99.40;;;;;;5091990;28;20369;-86
2021/08/03 12:58:32;;;;;;;0.73;0.60;;;19.40;98.20;;;;;;5092760;28;20051;-85